Bournemouth Airport

Airport
ICAO code: 
EGHH
IATA Code: 
BOH
Summary
ICAO Region: 
EUR
Territory: 
Location: 
Hurn, Dorset, England
Serving: 
Bournemouth
Elevation: 
38 ft
Coordinates: 
Aerial View: 
50° 46' 48" N, 1° 50' 33" W
Metar
Observation
EGHH 081720Z 26012KT CAVOK 06/00 Q0997
Station
Bournemouth Airport
Date/Time
2021-12-08 17:20:00
Wind direction
260°
Wind speed
12 kts
Lowest cloud amount
clouds and visibility OK
Temperature
6°C
Dew point
0°C
Humidity
65%
QNH
997 hPa
Weather condition
n/a

Description

A small international airport serving the area around the city of Bournemouth.

Climatology

Temperate Marine climate/Oceanic climate (Köppen climate classification Cfb). Moderately cool summer and comparatively warm winter with a mean temperature range of only 14°C. Prevailing south-westerly winds.

Runways

Designator Length Width Surface Rops
8/26 2271 46 ASP Yes/Yes

SKYbrary Partners:

Safety knowledge contributed by: